Zenith Leader — 2ACU6 — position and weather

sailwx.info

Track history (hours):
 
Tides and Currents Weather Stations Pressure Air Temp Water Temp Dewpoint Dewpoint Depression Visibility Wind Speed Wind Dir Waves Ship Positions

Zenith Leader

Last reported at 2017-Nov-20 00:30 UTC. Time now 2017-Nov-20 17:30 UTC.
Position N 53°35' E 008°32'.

Length 200 m; draft 8.2 m.

Type: Cargo ship. MMSI: 235058697.

Date/timePositionNaut miles runAvg speedWind from/ knotsBaromVisibWave heightAir tempDewpointWater temp
2017-Nov-20 00:30N 53°35' E 008°32'5 9.5
2017-Nov-20 00:00N 53°38' E 008°26'612.6
2017-Nov-19 23:31N 53°43' E 008°18'714.6
2017-Nov-19 23:00N 53°47' E 008°09'713.4
2017-Nov-19 22:30N 53°51' E 007°59'713.0
2017-Nov-19 21:59N 53°52' E 007°48'4 8.1
2017-Nov-19 21:29N 53°54' E 007°42'5 6.7
2017-Nov-19 20:48N 53°58' E 007°38'2 6.4
2017-Nov-19 20:29N 53°60' E 007°36'3 6.7
2017-Nov-19 20:00N 54°03' E 007°33'5 6.9
2017-Nov-19 19:18N 54°07' E 007°30'3 0.1
2017-Nov-17 17:27N 54°04' E 007°26'6 6.8
2017-Nov-17 16:32N 53°58' E 007°24'115.5
2017-Nov-17 16:27N 53°57' E 007°24'8614.6
2017-Nov-17 10:35N 53°30' E 005°06'115.1
2017-Nov-17 10:29N 53°30' E 005°04'1315.0
2017-Nov-17 09:38N 53°24' E 004°44'714.9
2017-Nov-17 09:08N 53°18' E 004°39'514.8
2017-Nov-17 08:47N 53°13' E 004°34'414.9
2017-Nov-17 08:30N 53°10' E 004°31'714.9
2017-Nov-17 08:01N 53°03' E 004°24'714.9
2017-Nov-17 07:31N 52°57' E 004°18'714.9
2017-Nov-17 07:00N 52°50' E 004°12'815.0
2017-Nov-17 06:30N 52°44' E 004°05'815.3
2017-Nov-17 06:00N 52°38' E 003°57'815.5
2017-Nov-17 05:30N 52°32' E 003°49'815.7
2017-Nov-17 05:01N 52°27' E 003°40'1015.9
2017-Nov-17 04:24N 52°20' E 003°29'5415.9
2017-Nov-17 01:00N 51°34' E 002°42'815.7
2017-Nov-17 00:30N 51°26' E 002°44'4 8.7
2017-Nov-17 00:00N 51°26' E 002°51'714.2
2017-Nov-16 23:30N 51°25' E 003°02'713.3
2017-Nov-16 23:00N 51°22' E 003°11'2 4.2
2017-Nov-16 22:30N 51°20' E 003°13'0 0.0
2017-Nov-16 22:00N 51°20' E 003°13'1 1.3
2017-Nov-16 21:30N 51°19' E 003°13'1 1.7
2017-Nov-16 20:59N 51°19' E 003°14'0 0.0
2017-Nov-16 20:29N 51°19' E 003°14'0 0.0
2017-Nov-16 19:59N 51°19' E 003°14'0 0.0
2017-Nov-16 19:29N 51°19' E 003°14'0 0.0
2017-Nov-16 18:59N 51°19' E 003°14'0 0.0
2017-Nov-16 18:29N 51°19' E 003°14'0 0.0
2017-Nov-16 17:59N 51°19' E 003°14'0 0.0
2017-Nov-16 17:29N 51°19' E 003°14'0 0.0
2017-Nov-16 16:59N 51°19' E 003°14'0 0.0
2017-Nov-16 16:29N 51°19' E 003°14'0 0.0
2017-Nov-16 15:59N 51°19' E 003°14'0 0.0
2017-Nov-16 15:29N 51°19' E 003°14'0 0.0
2017-Nov-16 14:59N 51°19' E 003°14'0 0.0
2017-Nov-16 14:29N 51°19' E 003°14'0 0.0
2017-Nov-16 13:59N 51°19' E 003°14'0 0.0
2017-Nov-16 13:29N 51°19' E 003°14'0 0.0
2017-Nov-16 12:59N 51°19' E 003°14'0 0.0
2017-Nov-16 12:29N 51°19' E 003°14'0 0.0
2017-Nov-16 11:59N 51°19' E 003°14'0 0.0
2017-Nov-16 11:29N 51°19' E 003°14'0 0.0
2017-Nov-16 10:59N 51°19' E 003°14'0 0.0
2017-Nov-16 10:29N 51°19' E 003°14'0 0.0
2017-Nov-16 09:59N 51°19' E 003°14'0 0.0
2017-Nov-16 09:29N 51°19' E 003°14'0 0.0
2017-Nov-16 08:59N 51°19' E 003°14'0 0.0
2017-Nov-16 08:29N 51°19' E 003°14'0 0.0
2017-Nov-16 07:59N 51°19' E 003°14'0 0.0
2017-Nov-16 07:29N 51°19' E 003°14'0 0.0
2017-Nov-16 06:59N 51°19' E 003°14'0 0.0
2017-Nov-16 06:29N 51°19' E 003°14'0 0.0
2017-Nov-16 05:59N 51°19' E 003°14'0 0.0
2017-Nov-16 05:29N 51°19' E 003°14'0 0.0
2017-Nov-16 04:59N 51°19' E 003°14'0 0.0
2017-Nov-16 04:29N 51°19' E 003°14'1 3.0
2017-Nov-16 04:01N 51°20' E 003°13'0 0.0
2017-Nov-16 03:31N 51°20' E 003°13'0 0.0
2017-Nov-16 03:00N 51°20' E 003°13'0 0.8
2017-Nov-16 02:30N 51°20' E 003°13'4 8.7
2017-Nov-16 02:01N 51°24' E 003°08'815.6
2017-Nov-16 01:31N 51°22' E 002°56'814.9
2017-Nov-16 01:00N 51°22' E 002°44'4 8.8
2017-Nov-16 00:30N 51°22' E 002°37'4 7.0
2017-Nov-15 23:58N 51°22' E 002°31'4 7.9
2017-Nov-15 23:30N 51°21' E 002°25'4 8.2
2017-Nov-15 23:00N 51°18' E 002°20'4 7.8
2017-Nov-15 22:30N 51°16' E 002°15'4 8.3
2017-Nov-15 22:00N 51°14' E 002°09'816.4
2017-Nov-15 21:30N 51°10' E 001°58'1019.4
2017-Nov-15 21:00N 51°05' E 001°44'1020.3
2017-Nov-15 20:30N 50°58' E 001°33'1019.8
2017-Nov-15 20:00N 50°49' E 001°26'1018.9
2017-Nov-15 19:29N 50°41' E 001°18'1219.4
2017-Nov-15 18:53N 50°33' E 001°04'719.4
2017-Nov-15 18:30N 50°28' E 000°55'1019.6
2017-Nov-15 17:59N 50°25' E 000°40'1019.8
2017-Nov-15 17:30N 50°23' E 000°26'1019.7
2017-Nov-15 17:00N 50°20' E 000°11'1019.3
2017-Nov-15 16:30N 50°17' W 000°04'919.0
2017-Nov-15 16:00N 50°15' W 000°18'918.8
2017-Nov-15 15:30N 50°13' W 000°32'918.4
2017-Nov-15 15:00N 50°11' W 000°46'917.9
2017-Nov-15 14:30N 50°08' W 000°60'917.3
2017-Nov-15 14:00N 50°06' W 001°13'816.7
2017-Nov-15 13:30N 50°04' W 001°25'816.2
2017-Nov-15 13:01N 50°02' W 001°38'815.6
2017-Nov-15 12:31N 50°00' W 001°50'815.3
2017-Nov-15 12:01N 49°58' W 002°01'815.2
2017-Nov-15 11:30N 49°57' W 002°13'815.8
2017-Nov-15 11:00N 49°55' W 002°25'816.4
2017-Nov-15 10:30N 49°53' W 002°37'816.8
2017-Nov-15 10:00N 49°51' W 002°49'917.3
2017-Nov-15 09:30N 49°49' W 003°03'917.6
2017-Nov-15 09:01N 49°47' W 003°16'917.8
2017-Nov-15 08:30N 49°46' W 003°30'917.9
2017-Nov-15 08:00N 49°45' W 003°43'1518.0
2017-Nov-15 07:10N 49°42' W 004°06'618.1
2017-Nov-15 06:50N 49°42' W 004°16'618.2
2017-Nov-15 06:30N 49°41' W 004°25'1118.3
2017-Nov-15 05:53N 49°39' W 004°42'1918.6
2017-Nov-15 04:52N 49°39' W 005°11'3515.3
2017-Nov-15 02:33N 49°54' W 006°01'118.7
2017-Nov-15 02:31N 49°55' W 006°01'918.0
2017-Nov-15 02:01N 50°04' W 006°01'917.7
2017-Nov-15 01:30N 50°12' W 006°00'917.7
2017-Nov-15 01:00N 50°21' W 006°00'917.4
2017-Nov-15 00:30N 50°30' W 005°59'917.5
2017-Nov-15 00:01N 50°37' W 005°51'917.8
2017-Nov-14 23:30N 50°44' W 005°43'918.1
2017-Nov-14 23:00N 50°52' W 005°34'918.3
2017-Nov-14 22:31N 50°59' W 005°25'918.4
2017-Nov-14 22:00N 51°06' W 005°16'918.6
2017-Nov-14 21:31N 51°13' W 005°06'917.1
2017-Nov-14 21:01N 51°18' W 004°55'918.6
2017-Nov-14 20:31N 51°19' W 004°40'1019.1
2017-Nov-14 20:01N 51°19' W 004°25'1019.6
2017-Nov-14 19:31N 51°19' W 004°09'1120.3
2017-Nov-14 18:59N 51°20' W 003°52'1020.8
2017-Nov-14 18:30N 51°21' W 003°36'1019.5
2017-Nov-14 18:01N 51°21' W 003°21'510.5
2017-Nov-14 17:30N 51°21' W 003°13'612.3
2017-Nov-14 17:00N 51°24' W 003°04'714.7
2017-Nov-14 16:30N 51°28' W 002°54'612.4
2017-Nov-14 16:00N 51°30' W 002°45'1 1.4
2017-Nov-14 15:30N 51°30' W 002°44'0 0.8
2017-Nov-14 14:58N 51°30' W 002°43'0 0.0
2017-Nov-14 14:28N 51°30' W 002°43'0 0.0
2017-Nov-14 13:58N 51°30' W 002°43'0 0.0
2017-Nov-14 13:28N 51°30' W 002°43'0 0.0
2017-Nov-14 12:58N 51°30' W 002°43'0 0.0
2017-Nov-14 12:28N 51°30' W 002°43'0 0.0
2017-Nov-14 11:58N 51°30' W 002°43'0 0.0
2017-Nov-14 11:28N 51°30' W 002°43'0 0.0
2017-Nov-14 10:58N 51°30' W 002°43'0 0.0
2017-Nov-14 10:28N 51°30' W 002°43'0 0.0
2017-Nov-14 09:58N 51°30' W 002°43'0 0.0
2017-Nov-14 09:28N 51°30' W 002°43'0 0.0
2017-Nov-14 08:58N 51°30' W 002°43'0 0.0
2017-Nov-14 08:28N 51°30' W 002°43'0 0.0
2017-Nov-14 07:58N 51°30' W 002°43'0 0.0
2017-Nov-14 07:28N 51°30' W 002°43'0 0.0
2017-Nov-14 06:58N 51°30' W 002°43'0 0.0
2017-Nov-14 06:28N 51°30' W 002°43'0 0.0
2017-Nov-14 05:58N 51°30' W 002°43'0 0.0
2017-Nov-14 05:28N 51°30' W 002°43'0 0.0
2017-Nov-14 04:58N 51°30' W 002°43'0 0.0
2017-Nov-14 04:28N 51°30' W 002°43'0 0.0
2017-Nov-14 03:58N 51°30' W 002°43'0 0.0
2017-Nov-14 03:28N 51°30' W 002°43'0 0.0
2017-Nov-14 02:58N 51°30' W 002°43'0 0.1
2017-Nov-14 02:30N 51°30' W 002°43'0 0.7
2017-Nov-14 02:00N 51°30' W 002°43'0 0.5
2017-Nov-14 01:30N 51°30' W 002°44'1 1.6
2017-Nov-14 01:00N 51°30' W 002°45'611.6
2017-Nov-14 00:30N 51°28' W 002°54'816.6
2017-Nov-14 00:01N 51°23' W 003°05'612.6
2017-Nov-13 23:30N 51°21' W 003°14'4 7.2
2017-Nov-13 22:59N 51°21' W 003°20'2 4.3
2017-Nov-13 22:28N 51°21' W 003°24'3 5.3
2017-Nov-13 21:56N 51°21' W 003°28'  
2017-Nov-11 10:59N 39°34' W 009°51'1014.9
2017-Nov-11 10:18N 39°24' W 009°53'414.8
2017-Nov-11 10:00N 39°20' W 009°53'714.9
2017-Nov-11 09:30N 39°12' W 009°54'815.1
2017-Nov-11 09:00N 39°05' W 009°53'815.2
2017-Nov-11 08:30N 38°57' W 009°52'815.3
2017-Nov-11 08:00N 38°49' W 009°51'815.0
2017-Nov-11 07:30N 38°42' W 009°51'815.2
2017-Nov-11 07:00N 38°34' W 009°49'715.0
2017-Nov-11 06:31N 38°27' W 009°47'714.7
2017-Nov-11 06:01N 38°20' W 009°45'714.8
2017-Nov-11 05:30N 38°13' W 009°43'714.7
2017-Nov-11 05:00N 38°06' W 009°41'815.3
2017-Nov-11 04:31N 37°58' W 009°39'816.0
2017-Nov-11 04:00N 37°50' W 009°37'815.7
2017-Nov-11 03:31N 37°43' W 009°35'815.6
2017-Nov-11 03:01N 37°35' W 009°33'815.6
2017-Nov-11 02:30N 37°28' W 009°29'815.3
2017-Nov-11 02:01N 37°20' W 009°27'815.4
2017-Nov-11 01:30N 37°13' W 009°25'815.2
2017-Nov-11 00:58N 37°05' W 009°23'815.1
2017-Nov-11 00:27N 36°57' W 009°21'1115.2
2017-Nov-10 23:43N 36°48' W 009°14'315.0
2017-Nov-10 23:30N 36°45' W 009°11'1615.8
2017-Nov-10 22:28N 36°39' W 008°52'16316.2
2017-Nov-10 12:24N 35°58' W 005°36'513.7
2017-Nov-10 12:01N 35°59' W 005°30'713.5
2017-Nov-10 11:31N 36°01' W 005°22'815.8
2017-Nov-10 11:00N 36°04' W 005°12'  
Track history (hours):
 
Tides and Currents Weather Stations Pressure Air Temp Water Temp Dewpoint Dewpoint Depression Visibility Wind Speed Wind Dir Waves Ship Positions

Zenith Leader

Last reported at 2017-Nov-20 00:30 UTC. Time now 2017-Nov-20 17:30 UTC.
Position N 53°35' E 008°32'.

Length 200 m; draft 8.2 m.

Type: Cargo ship. MMSI: 235058697.

Date/timePositionNaut miles runAvg speedWind from/ knotsBaromVisibWave heightAir tempDewpointWater temp
2017-Nov-20 00:30N 53°35' E 008°32'5 9.5
2017-Nov-20 00:00N 53°38' E 008°26'612.6
2017-Nov-19 23:31N 53°43' E 008°18'714.6
2017-Nov-19 23:00N 53°47' E 008°09'713.4
2017-Nov-19 22:30N 53°51' E 007°59'713.0
2017-Nov-19 21:59N 53°52' E 007°48'4 8.1
2017-Nov-19 21:29N 53°54' E 007°42'5 6.7
2017-Nov-19 20:48N 53°58' E 007°38'2 6.4
2017-Nov-19 20:29N 53°60' E 007°36'3 6.7
2017-Nov-19 20:00N 54°03' E 007°33'5 6.9
2017-Nov-19 19:18N 54°07' E 007°30'3 0.1
2017-Nov-17 17:27N 54°04' E 007°26'6 6.8
2017-Nov-17 16:32N 53°58' E 007°24'115.5
2017-Nov-17 16:27N 53°57' E 007°24'8614.6
2017-Nov-17 10:35N 53°30' E 005°06'115.1
2017-Nov-17 10:29N 53°30' E 005°04'1315.0
2017-Nov-17 09:38N 53°24' E 004°44'714.9
2017-Nov-17 09:08N 53°18' E 004°39'514.8
2017-Nov-17 08:47N 53°13' E 004°34'414.9
2017-Nov-17 08:30N 53°10' E 004°31'714.9
2017-Nov-17 08:01N 53°03' E 004°24'714.9
2017-Nov-17 07:31N 52°57' E 004°18'714.9
2017-Nov-17 07:00N 52°50' E 004°12'815.0
2017-Nov-17 06:30N 52°44' E 004°05'815.3
2017-Nov-17 06:00N 52°38' E 003°57'815.5
2017-Nov-17 05:30N 52°32' E 003°49'815.7
2017-Nov-17 05:01N 52°27' E 003°40'1015.9
2017-Nov-17 04:24N 52°20' E 003°29'5415.9
2017-Nov-17 01:00N 51°34' E 002°42'815.7
2017-Nov-17 00:30N 51°26' E 002°44'4 8.7
2017-Nov-17 00:00N 51°26' E 002°51'714.2
2017-Nov-16 23:30N 51°25' E 003°02'713.3
2017-Nov-16 23:00N 51°22' E 003°11'2 4.2
2017-Nov-16 22:30N 51°20' E 003°13'0 0.0
2017-Nov-16 22:00N 51°20' E 003°13'1 1.3
2017-Nov-16 21:30N 51°19' E 003°13'1 1.7
2017-Nov-16 20:59N 51°19' E 003°14'0 0.0
2017-Nov-16 20:29N 51°19' E 003°14'0 0.0
2017-Nov-16 19:59N 51°19' E 003°14'0 0.0
2017-Nov-16 19:29N 51°19' E 003°14'0 0.0
2017-Nov-16 18:59N 51°19' E 003°14'0 0.0
2017-Nov-16 18:29N 51°19' E 003°14'0 0.0
2017-Nov-16 17:59N 51°19' E 003°14'0 0.0
2017-Nov-16 17:29N 51°19' E 003°14'0 0.0
2017-Nov-16 16:59N 51°19' E 003°14'0 0.0
2017-Nov-16 16:29N 51°19' E 003°14'0 0.0
2017-Nov-16 15:59N 51°19' E 003°14'0 0.0
2017-Nov-16 15:29N 51°19' E 003°14'0 0.0
2017-Nov-16 14:59N 51°19' E 003°14'0 0.0
2017-Nov-16 14:29N 51°19' E 003°14'0 0.0
2017-Nov-16 13:59N 51°19' E 003°14'0 0.0
2017-Nov-16 13:29N 51°19' E 003°14'0 0.0
2017-Nov-16 12:59N 51°19' E 003°14'0 0.0
2017-Nov-16 12:29N 51°19' E 003°14'0 0.0
2017-Nov-16 11:59N 51°19' E 003°14'0 0.0
2017-Nov-16 11:29N 51°19' E 003°14'0 0.0
2017-Nov-16 10:59N 51°19' E 003°14'0 0.0
2017-Nov-16 10:29N 51°19' E 003°14'0 0.0
2017-Nov-16 09:59N 51°19' E 003°14'0 0.0
2017-Nov-16 09:29N 51°19' E 003°14'0 0.0
2017-Nov-16 08:59N 51°19' E 003°14'0 0.0
2017-Nov-16 08:29N 51°19' E 003°14'0 0.0
2017-Nov-16 07:59N 51°19' E 003°14'0 0.0
2017-Nov-16 07:29N 51°19' E 003°14'0 0.0
2017-Nov-16 06:59N 51°19' E 003°14'0 0.0
2017-Nov-16 06:29N 51°19' E 003°14'0 0.0
2017-Nov-16 05:59N 51°19' E 003°14'0 0.0
2017-Nov-16 05:29N 51°19' E 003°14'0 0.0
2017-Nov-16 04:59N 51°19' E 003°14'0 0.0
2017-Nov-16 04:29N 51°19' E 003°14'1 3.0
2017-Nov-16 04:01N 51°20' E 003°13'0 0.0
2017-Nov-16 03:31N 51°20' E 003°13'0 0.0
2017-Nov-16 03:00N 51°20' E 003°13'0 0.8
2017-Nov-16 02:30N 51°20' E 003°13'4 8.7
2017-Nov-16 02:01N 51°24' E 003°08'815.6
2017-Nov-16 01:31N 51°22' E 002°56'814.9
2017-Nov-16 01:00N 51°22' E 002°44'4 8.8
2017-Nov-16 00:30N 51°22' E 002°37'4 7.0
2017-Nov-15 23:58N 51°22' E 002°31'4 7.9
2017-Nov-15 23:30N 51°21' E 002°25'4 8.2
2017-Nov-15 23:00N 51°18' E 002°20'4 7.8
2017-Nov-15 22:30N 51°16' E 002°15'4 8.3
2017-Nov-15 22:00N 51°14' E 002°09'816.4
2017-Nov-15 21:30N 51°10' E 001°58'1019.4
2017-Nov-15 21:00N 51°05' E 001°44'1020.3
2017-Nov-15 20:30N 50°58' E 001°33'1019.8
2017-Nov-15 20:00N 50°49' E 001°26'1018.9
2017-Nov-15 19:29N 50°41' E 001°18'1219.4
2017-Nov-15 18:53N 50°33' E 001°04'719.4
2017-Nov-15 18:30N 50°28' E 000°55'1019.6
2017-Nov-15 17:59N 50°25' E 000°40'1019.8
2017-Nov-15 17:30N 50°23' E 000°26'1019.7
2017-Nov-15 17:00N 50°20' E 000°11'1019.3
2017-Nov-15 16:30N 50°17' W 000°04'919.0
2017-Nov-15 16:00N 50°15' W 000°18'918.8
2017-Nov-15 15:30N 50°13' W 000°32'918.4
2017-Nov-15 15:00N 50°11' W 000°46'917.9
2017-Nov-15 14:30N 50°08' W 000°60'917.3
2017-Nov-15 14:00N 50°06' W 001°13'816.7
2017-Nov-15 13:30N 50°04' W 001°25'816.2
2017-Nov-15 13:01N 50°02' W 001°38'815.6
2017-Nov-15 12:31N 50°00' W 001°50'815.3
2017-Nov-15 12:01N 49°58' W 002°01'815.2
2017-Nov-15 11:30N 49°57' W 002°13'815.8
2017-Nov-15 11:00N 49°55' W 002°25'816.4
2017-Nov-15 10:30N 49°53' W 002°37'816.8
2017-Nov-15 10:00N 49°51' W 002°49'917.3
2017-Nov-15 09:30N 49°49' W 003°03'917.6
2017-Nov-15 09:01N 49°47' W 003°16'917.8
2017-Nov-15 08:30N 49°46' W 003°30'917.9
2017-Nov-15 08:00N 49°45' W 003°43'1518.0
2017-Nov-15 07:10N 49°42' W 004°06'618.1
2017-Nov-15 06:50N 49°42' W 004°16'618.2
2017-Nov-15 06:30N 49°41' W 004°25'1118.3
2017-Nov-15 05:53N 49°39' W 004°42'1918.6
2017-Nov-15 04:52N 49°39' W 005°11'3515.3
2017-Nov-15 02:33N 49°54' W 006°01'118.7
2017-Nov-15 02:31N 49°55' W 006°01'918.0
2017-Nov-15 02:01N 50°04' W 006°01'917.7
2017-Nov-15 01:30N 50°12' W 006°00'917.7
2017-Nov-15 01:00N 50°21' W 006°00'917.4
2017-Nov-15 00:30N 50°30' W 005°59'917.5
2017-Nov-15 00:01N 50°37' W 005°51'917.8
2017-Nov-14 23:30N 50°44' W 005°43'918.1
2017-Nov-14 23:00N 50°52' W 005°34'918.3
2017-Nov-14 22:31N 50°59' W 005°25'918.4
2017-Nov-14 22:00N 51°06' W 005°16'918.6
2017-Nov-14 21:31N 51°13' W 005°06'917.1
2017-Nov-14 21:01N 51°18' W 004°55'918.6
2017-Nov-14 20:31N 51°19' W 004°40'1019.1
2017-Nov-14 20:01N 51°19' W 004°25'1019.6
2017-Nov-14 19:31N 51°19' W 004°09'1120.3
2017-Nov-14 18:59N 51°20' W 003°52'1020.8
2017-Nov-14 18:30N 51°21' W 003°36'1019.5
2017-Nov-14 18:01N 51°21' W 003°21'510.5
2017-Nov-14 17:30N 51°21' W 003°13'612.3
2017-Nov-14 17:00N 51°24' W 003°04'714.7
2017-Nov-14 16:30N 51°28' W 002°54'612.4
2017-Nov-14 16:00N 51°30' W 002°45'1 1.4
2017-Nov-14 15:30N 51°30' W 002°44'0 0.8
2017-Nov-14 14:58N 51°30' W 002°43'0 0.0
2017-Nov-14 14:28N 51°30' W 002°43'0 0.0
2017-Nov-14 13:58N 51°30' W 002°43'0 0.0
2017-Nov-14 13:28N 51°30' W 002°43'0 0.0
2017-Nov-14 12:58N 51°30' W 002°43'0 0.0
2017-Nov-14 12:28N 51°30' W 002°43'0 0.0
2017-Nov-14 11:58N 51°30' W 002°43'0 0.0
2017-Nov-14 11:28N 51°30' W 002°43'0 0.0
2017-Nov-14 10:58N 51°30' W 002°43'0 0.0
2017-Nov-14 10:28N 51°30' W 002°43'0 0.0
2017-Nov-14 09:58N 51°30' W 002°43'0 0.0
2017-Nov-14 09:28N 51°30' W 002°43'0 0.0
2017-Nov-14 08:58N 51°30' W 002°43'0 0.0
2017-Nov-14 08:28N 51°30' W 002°43'0 0.0
2017-Nov-14 07:58N 51°30' W 002°43'0 0.0
2017-Nov-14 07:28N 51°30' W 002°43'0 0.0
2017-Nov-14 06:58N 51°30' W 002°43'0 0.0
2017-Nov-14 06:28N 51°30' W 002°43'0 0.0
2017-Nov-14 05:58N 51°30' W 002°43'0 0.0
2017-Nov-14 05:28N 51°30' W 002°43'0 0.0
2017-Nov-14 04:58N 51°30' W 002°43'0 0.0
2017-Nov-14 04:28N 51°30' W 002°43'0 0.0
2017-Nov-14 03:58N 51°30' W 002°43'0 0.0
2017-Nov-14 03:28N 51°30' W 002°43'0 0.0
2017-Nov-14 02:58N 51°30' W 002°43'0 0.1
2017-Nov-14 02:30N 51°30' W 002°43'0 0.7
2017-Nov-14 02:00N 51°30' W 002°43'0 0.5
2017-Nov-14 01:30N 51°30' W 002°44'1 1.6
2017-Nov-14 01:00N 51°30' W 002°45'611.6
2017-Nov-14 00:30N 51°28' W 002°54'816.6
2017-Nov-14 00:01N 51°23' W 003°05'612.6
2017-Nov-13 23:30N 51°21' W 003°14'4 7.2
2017-Nov-13 22:59N 51°21' W 003°20'2 4.3
2017-Nov-13 22:28N 51°21' W 003°24'3 5.3
2017-Nov-13 21:56N 51°21' W 003°28'  
2017-Nov-11 10:59N 39°34' W 009°51'1014.9
2017-Nov-11 10:18N 39°24' W 009°53'414.8
2017-Nov-11 10:00N 39°20' W 009°53'714.9
2017-Nov-11 09:30N 39°12' W 009°54'815.1
2017-Nov-11 09:00N 39°05' W 009°53'815.2
2017-Nov-11 08:30N 38°57' W 009°52'815.3
2017-Nov-11 08:00N 38°49' W 009°51'815.0
2017-Nov-11 07:30N 38°42' W 009°51'815.2
2017-Nov-11 07:00N 38°34' W 009°49'715.0
2017-Nov-11 06:31N 38°27' W 009°47'714.7
2017-Nov-11 06:01N 38°20' W 009°45'714.8
2017-Nov-11 05:30N 38°13' W 009°43'714.7
2017-Nov-11 05:00N 38°06' W 009°41'815.3
2017-Nov-11 04:31N 37°58' W 009°39'816.0
2017-Nov-11 04:00N 37°50' W 009°37'815.7
2017-Nov-11 03:31N 37°43' W 009°35'815.6
2017-Nov-11 03:01N 37°35' W 009°33'815.6
2017-Nov-11 02:30N 37°28' W 009°29'815.3
2017-Nov-11 02:01N 37°20' W 009°27'815.4
2017-Nov-11 01:30N 37°13' W 009°25'815.2
2017-Nov-11 00:58N 37°05' W 009°23'815.1
2017-Nov-11 00:27N 36°57' W 009°21'1115.2
2017-Nov-10 23:43N 36°48' W 009°14'315.0
2017-Nov-10 23:30N 36°45' W 009°11'1615.8
2017-Nov-10 22:28N 36°39' W 008°52'16316.2
2017-Nov-10 12:24N 35°58' W 005°36'513.7
2017-Nov-10 12:01N 35°59' W 005°30'713.5
2017-Nov-10 11:31N 36°01' W 005°22'815.8
2017-Nov-10 11:00N 36°04' W 005°12'  

Dump ship's entire track history